LJPZLDRI

Guest
Details From LJPZ - PORTOROZ
To LDRI - RIJEKA
Flight Number -
Tags generated
Created
Modified
Stats Distance 43 nm / 80 km
Max Altitude 100 ft / 30 m
Waypoints 3
Social Downloads 0
Likes 0
Share VATSIM

Download

Looking for another format? Having issues loading an existing format? Contact us
Advertisement - Login to hide

Notes

Basic altitude profile: - Ascent Rate: 2500ft/min - Ascent Speed: 250kts - Cruise Altitude: 35000ft - Cruise Speed: 420kts - Descent Rate: 1500ft/min - Descent Speed: 250kts Options: - Use NATs: yes - Use PACOTS: yes - Use low airways: yes - Use high airways: no

Route

LJPZ RJK LDRI

ID Type Via Altitude Latitude Longitude Leg Dist Tot Dist Heading (true) Name
O LJPZ APT - 0 ft / 0 m 45.47244˚ 13.61568˚ - 0 nm - PORTOROZ
RJK VOR - 100 ft / 30 m 45.22412˚ 14.56696˚ 42 nm 42 nm 110° / 111° RIJEKA VOR-DME
O LDRI APT - 0 ft / 0 m 45.21663˚ 14.57081˚ 0 nm 43 nm 160° / 160° RIJEKA

Altitude Profile

Advertisement - Login to hide

LJPZ

Details ICAO LJPZ (POW)
Name PORTOROZ
Region Slovenia
Timezone Europe/Ljubljana (UTC+2.0)
Stats Elevation 7 ft / 2 m (AMSL)
Location 45.472445° 13.615681°
Runways 1
Magnetic Variation 3.494° E

METAR

LJPZ 271800Z 33003KT CAVOK 24/19 Q1017

Decode

TAF

Not found

Departure Runways

ID Width Length Bearing (true) Bearing (mag) Surface Threshold Offset Overrun Length
15 98 ft / 30 m 3,939 ft / 1,201 m 151.28° 147.79° Asphalt 0 ft / 0 m 0 ft / 0 m
33 98 ft / 30 m 3,939 ft / 1,201 m 331.29° 327.80° Asphalt 751 ft / 229 m 0 ft / 0 m

LDRI

Details ICAO LDRI (RJK)
Name RIJEKA
Region Croatia
Timezone Europe/Zagreb (UTC+2.0)
Stats Elevation 278 ft / 85 m (AMSL)
Location 45.216635° 14.570813°
Runways 1
Magnetic Variation 3.673° E

METAR

LDRI 271800Z 34006KT CAVOK 25/17 Q1017

Decode

TAF

TAF LDRI 271725Z 2718/2818 VRB02KT CAVOK TX28/2812Z TN19/2803Z TEMPO 2808/2816 32006KT PROB30 TEMPO 2812/2818 TS FEW030CB

Decode

Destination Runways

ID Width Length Bearing (true) Bearing (mag) Surface Threshold Offset Overrun Length
14 148 ft / 45 m 8,161 ft / 2,488 m 143.77° 140.10° Asphalt 0 ft / 0 m 0 ft / 0 m
32 148 ft / 45 m 8,161 ft / 2,488 m 323.78° 320.11° Asphalt 0 ft / 0 m 0 ft / 0 m

Approach Navaids

Runway Type Ident Frequency Range Bearing (true) Bearing (mag) Slope Elevation
14 Localiser IKR 108.50 MHz 25 nm / 46 km 143.68° 140.01° - 200 ft / 61 m (AMSL)
14 Glidescope IKR 108.50 MHz 25 nm / 46 km 143.68° 140.01° 3.00° 259 ft / 79 m (AMSL)

Popular Alternatives